Harrison, ID

11:37 AM PDT on March 28, 2015 (GMT -0700)
Harrison Ridge | | Change Station
CLOSE
Current Station
Personal Weather Station
Location: Harrison, ID
Elevation: 2720 ft
Nearby Weather Stations

Elev 2720 ft 47.44 °N, 116.76 °W | Updated 1 second ago

Mostly Cloudy
Mostly Cloudy
47.0 °F
Feels Like 37 °F
N
36.8
Wind Variable Wind from SW
Gusts 36.8 mph

Today
High -- | Low -- °F
--% Chance of Precip.
Yesterday
High -- | Low -- °F
Precip. -- in
6:34 AM 7:10 PM
Waxing Gibbous, 64% visible
Pressure 30.07 in
Visibility 10.0 miles
Clouds Few 3600 ft
Windchill 37 °F
Dew Point 42 °F
Humidity 84%
Rainfall 0.07 in
Snow Depth Not available.
UV 5 out of 12
Pollen 7.70 out of 12
Air Quality Not available.
Flu Activity Not available.
METAR KCOE 281815Z AUTO 23025G31KT 170V240 10SM FEW036 10/03 A3007 RMK AO1

More Conditions Fewer Conditions

Pressure 30.07 in
Visibility 10.0 miles
Clouds Few 3600 ft
Windchill 37 °F
Dew Point 42 °F
Humidity 84%
Rainfall 0.07 in
Snow Depth Not available.
UV 5 out of 12
Pollen 7.70 out of 12
Air Quality Not available.
Flu Activity Not available.
METAR KCOE 281815Z AUTO 23025G31KT 170V240 10SM FEW036 10/03 A3007 RMK AO1

More Conditions Fewer Conditions

Nowcast | as of 11:03 am PDT on March 28, 2015

Southwest winds of 25 to 30 mph with gusts to around 40 mph will last through mid to late afternoon across the Spokane and Coeur D'Alene region...decreasing to southwest at 10 to 20 mph with gusts of 30 mph beginning late afternoon. High profile vehicles traveling along Highway 27 as well as Highway 195 across the south part of Spokane County will experience gusty cross winds as they head toward the Palouse.

×

10-Day Weather Forecast

Almanac

Astronomy

Mar. 28, 2015 Rise Set
Actual Time
Civil Twilight
Nautical Twilight
Astronomical Twilight
Moon
Length of Visible Light
Length of Day
Tomorrow will be .
, % of the Moon is Illuminated

Today's Extremes

State Highs State Lows

Community

WunderPhotos

Upload Photos

1,809,055 photos uploaded!

WunderBlogs® & News

Nearby

Air Quality

  Air Quality AQ Index Pollutant
Not available.

Snow Depth

Station Depth Elevation

Earthquake Activity

City Distance Mag. Time & Date
Minimum magnitude displayed is 2.5.

Coastal Water Temperatures

Place Temperature

Stations

Nearby Weather Stations

Station Location Temp. Windchill Dew Point Humidity Wind Precip. Elev Updated Type